Time;durP1;ratioP1;P1;durP2;ratioP2;P2;SDS_P1;SDS_P2;PMS_P1;PMS_P2;Temp;Humidity;BMP_temperature;BMP_pressure;BME280_temperature;BME280_humidity;BME280_pressure;Samples;Min_cycle;Max_cycle;Signal;HPM_P1;HPM_P2
2023/07/31 00:00:49;;;;;;;2.80;1.73;;;22.30;98.20;;;;;;5055915;28;20179;-72
2023/07/31 00:03:15;;;;;;;3.57;1.93;;;22.40;98.10;;;;;;5056455;28;20470;-72
2023/07/31 00:05:40;;;;;;;1.80;1.60;;;22.40;97.80;;;;;;5056373;28;20176;-72
2023/07/31 00:08:14;;;;;;;2.90;1.97;;;22.40;97.50;;;;;;5056514;28;20176;-72
2023/07/31 00:10:39;;;;;;;3.03;1.70;;;22.50;97.60;;;;;;5057235;28;20184;-72
2023/07/31 00:13:05;;;;;;;1.90;1.60;;;22.50;97.60;;;;;;5056400;28;20235;-72
2023/07/31 00:15:30;;;;;;;2.17;1.73;;;22.40;97.40;;;;;;5055789;28;20542;-72
2023/07/31 00:18:06;;;;;;;2.03;1.70;;;22.40;97.80;;;;;;5056941;28;20164;-72
2023/07/31 00:20:32;;;;;;;2.10;1.70;;;22.40;97.60;;;;;;5056322;28;20286;-72
2023/07/31 00:22:57;;;;;;;2.73;2.00;;;22.30;98.80;;;;;;5057135;28;20521;-72
2023/07/31 00:25:23;;;;;;;2.33;1.80;;;22.30;97.90;;;;;;5055880;28;20256;-72
2023/07/31 00:27:50;;;;;;;2.67;2.00;;;22.40;98.00;;;;;;5056700;28;20175;-71
2023/07/31 00:30:16;;;;;;;2.83;1.93;;;22.30;98.40;;;;;;5056146;28;20445;-71
2023/07/31 00:32:42;;;;;;;2.57;2.00;;;22.30;98.00;;;;;;5055578;28;20323;-72
2023/07/31 00:35:08;;;;;;;2.00;1.80;;;22.30;98.10;;;;;;5055801;28;20592;-72
2023/07/31 00:37:34;;;;;;;3.03;1.93;;;22.30;98.00;;;;;;5055799;28;20172;-72
2023/07/31 00:40:00;;;;;;;4.00;2.10;;;22.30;97.90;;;;;;5055749;28;20177;-72
2023/07/31 00:42:26;;;;;;;3.80;1.80;;;22.40;98.00;;;;;;5056598;28;20312;-73
2023/07/31 00:44:51;;;;;;;4.13;1.83;;;22.40;98.00;;;;;;5055475;28;20190;-72
2023/07/31 00:47:30;;;;;;;3.53;1.77;;;22.30;97.80;;;;;;5056283;28;20207;-72
2023/07/31 00:49:56;;;;;;;2.97;1.90;;;22.40;97.70;;;;;;5060052;28;20188;-72
2023/07/31 00:52:22;;;;;;;2.17;1.83;;;22.30;98.00;;;;;;5060432;28;20204;-72
2023/07/31 00:54:49;;;;;;;2.50;1.90;;;22.30;98.10;;;;;;5058358;28;20226;-72
2023/07/31 00:57:18;;;;;;;4.50;2.47;;;22.30;98.10;;;;;;5058864;28;20557;-72
2023/07/31 00:59:46;;;;;;;6.77;2.10;;;22.30;98.50;;;;;;5059330;28;20184;-72
2023/07/31 01:02:12;;;;;;;3.43;1.97;;;22.30;98.90;;;;;;5058932;28;20550;-71
2023/07/31 01:04:37;;;;;;;2.77;2.13;;;22.30;98.60;;;;;;5059207;28;20210;-72
2023/07/31 01:07:22;;;;;;;3.30;1.90;;;22.30;98.40;;;;;;5060326;28;20175;-71
2023/07/31 01:10:09;;;;;;;3.23;2.20;;;22.30;98.60;;;;;;5059597;28;20168;-72
2023/07/31 01:12:38;;;;;;;2.20;1.83;;;22.20;98.90;;;;;;5058402;28;20220;-71
2023/07/31 01:15:04;;;;;;;3.10;2.23;;;22.30;98.30;;;;;;5058478;28;20176;-72
2023/07/31 01:17:30;;;;;;;4.13;2.23;;;22.20;98.70;;;;;;5059232;28;20180;-72
2023/07/31 01:19:59;;;;;;;2.80;2.20;;;22.20;98.80;;;;;;5058976;28;20271;-72
2023/07/31 01:22:36;;;;;;;4.50;2.40;;;22.20;98.40;;;;;;5059556;28;20187;-72
2023/07/31 01:25:42;;;;;;;3.70;2.07;;;22.20;98.60;;;;;;5058752;28;20176;-72
2023/07/31 01:28:19;;;;;;;3.10;2.30;;;22.10;99.30;;;;;;5059321;28;20233;-72
2023/07/31 01:30:48;;;;;;;2.87;1.90;;;22.20;99.10;;;;;;5060118;28;20269;-72
2023/07/31 01:33:19;;;;;;;4.90;2.10;;;22.10;98.70;;;;;;5059297;28;20299;-72
2023/07/31 01:35:46;;;;;;;2.57;2.07;;;22.20;99.30;;;;;;5059146;28;20207;-72
2023/07/31 01:38:11;;;;;;;4.77;2.10;;;22.20;98.40;;;;;;5058599;28;20180;-72
2023/07/31 01:40:37;;;;;;;4.37;2.20;;;22.20;98.60;;;;;;5058871;28;20168;-72
2023/07/31 01:43:08;;;;;;;3.73;2.07;;;22.20;98.40;;;;;;5058761;28;20714;-72
2023/07/31 01:45:34;;;;;;;2.87;2.10;;;22.20;98.30;;;;;;5058380;28;20274;-72
2023/07/31 01:48:00;;;;;;;3.73;2.27;;;22.20;98.40;;;;;;5058482;28;20270;-72
2023/07/31 01:50:25;;;;;;;3.43;2.30;;;22.20;98.60;;;;;;5059352;28;20638;-72
2023/07/31 01:52:52;;;;;;;4.17;2.30;;;22.20;98.60;;;;;;5058533;28;20200;-72
2023/07/31 01:55:18;;;;;;;4.37;2.10;;;22.20;98.40;;;;;;5057172;28;20165;-72
2023/07/31 01:57:43;;;;;;;3.20;1.97;;;22.20;98.20;;;;;;5057788;28;20159;-73
2023/07/31 02:00:09;;;;;;;3.23;2.30;;;22.20;98.60;;;;;;5057933;28;20665;-72
2023/07/31 02:02:35;;;;;;;4.00;2.37;;;22.20;98.50;;;;;;5058280;28;20172;-72
2023/07/31 02:05:01;;;;;;;2.73;2.07;;;22.20;98.70;;;;;;5058949;28;20194;-72
2023/07/31 02:07:26;;;;;;;3.00;1.87;;;22.20;98.40;;;;;;5059046;28;20172;-72
2023/07/31 02:09:52;;;;;;;3.87;2.53;;;22.20;98.20;;;;;;5058146;28;20604;-72
2023/07/31 02:12:17;;;;;;;5.73;2.63;;;22.20;98.30;;;;;;5058320;28;20294;-72
2023/07/31 02:14:45;;;;;;;4.50;2.13;;;22.20;98.20;;;;;;5057152;28;20175;-72
2023/07/31 02:17:10;;;;;;;3.33;2.40;;;22.20;98.60;;;;;;5057513;28;20644;-72
2023/07/31 02:19:36;;;;;;;4.33;2.40;;;22.20;98.30;;;;;;5056475;28;20166;-72
2023/07/31 02:22:01;;;;;;;4.23;2.30;;;22.20;98.10;;;;;;5054862;28;20476;-72
2023/07/31 02:24:27;;;;;;;5.50;2.50;;;22.20;98.10;;;;;;5056797;28;20196;-72
2023/07/31 02:26:53;;;;;;;4.50;2.60;;;22.20;98.20;;;;;;5056490;28;20179;-72
2023/07/31 02:29:19;;;;;;;4.73;2.30;;;22.20;98.10;;;;;;5056431;28;20172;-72
2023/07/31 02:31:44;;;;;;;3.67;2.17;;;22.20;98.00;;;;;;5056164;28;20176;-72
2023/07/31 02:34:10;;;;;;;4.07;2.40;;;22.20;97.90;;;;;;5057999;28;20311;-72
2023/07/31 02:36:36;;;;;;;5.17;2.50;;;22.20;98.40;;;;;;5058247;28;20539;-72
2023/07/31 02:39:01;;;;;;;3.40;2.50;;;22.20;98.00;;;;;;5058189;28;20231;-72
2023/07/31 02:41:27;;;;;;;3.10;2.37;;;22.20;98.10;;;;;;5057136;28;20233;-72
2023/07/31 02:43:55;;;;;;;3.00;2.00;;;22.20;98.10;;;;;;5058030;28;20204;-72
2023/07/31 02:46:24;;;;;;;2.77;2.20;;;22.20;97.90;;;;;;5058026;28;20187;-72
2023/07/31 02:48:49;;;;;;;4.37;2.30;;;22.20;97.80;;;;;;5058495;28;20169;-72
2023/07/31 02:51:15;;;;;;;3.10;2.20;;;22.20;97.80;;;;;;5057470;28;20175;-72
2023/07/31 02:53:59;;;;;;;4.87;2.60;;;22.20;97.80;;;;;;5066260;28;20200;-72
2023/07/31 02:56:25;;;;;;;4.47;2.63;;;22.20;98.20;;;;;;5077413;28;20164;-72
2023/07/31 02:58:50;;;;;;;5.47;2.40;;;22.20;98.10;;;;;;5076854;28;20434;-72
2023/07/31 03:01:16;;;;;;;2.77;2.20;;;22.10;98.00;;;;;;5076492;28;20214;-72
2023/07/31 03:03:42;;;;;;;6.80;2.43;;;22.10;97.90;;;;;;5075981;28;20465;-72
2023/07/31 03:06:07;;;;;;;5.93;3.20;;;22.10;98.10;;;;;;5076784;28;20166;-72
2023/07/31 03:08:33;;;;;;;3.90;2.43;;;22.10;98.10;;;;;;5077475;28;20208;-72
2023/07/31 03:10:59;;;;;;;4.63;2.40;;;22.10;98.00;;;;;;5058988;28;20634;-72
2023/07/31 03:13:25;;;;;;;3.57;2.20;;;22.10;97.90;;;;;;5076683;28;20213;-72
2023/07/31 03:15:50;;;;;;;2.83;2.03;;;22.10;97.80;;;;;;5076843;28;20171;-72
2023/07/31 03:18:16;;;;;;;4.07;2.27;;;22.10;97.90;;;;;;5076912;28;20457;-72
2023/07/31 03:20:46;;;;;;;2.93;2.27;;;22.10;98.00;;;;;;5077118;28;20182;-72
2023/07/31 03:23:12;;;;;;;3.90;2.23;;;22.10;98.00;;;;;;5077439;28;20171;-72
2023/07/31 03:25:37;;;;;;;5.07;2.50;;;22.10;97.90;;;;;;5076748;28;20190;-72
2023/07/31 03:28:03;;;;;;;5.07;2.73;;;22.10;97.90;;;;;;5077362;28;20172;-72
2023/07/31 03:30:40;;;;;;;3.70;2.10;;;22.10;97.90;;;;;;5076102;28;20513;-72
2023/07/31 03:33:06;;;;;;;3.77;2.50;;;22.10;97.90;;;;;;5077106;28;20206;-72
2023/07/31 03:35:31;;;;;;;5.77;2.63;;;22.10;98.00;;;;;;5075987;28;20179;-72
2023/07/31 03:37:57;;;;;;;3.73;2.23;;;22.00;98.20;;;;;;5075583;28;20752;-72
2023/07/31 03:40:23;;;;;;;4.20;2.50;;;22.00;98.10;;;;;;5075434;28;20163;-72
2023/07/31 03:42:48;;;;;;;3.73;2.27;;;22.10;98.10;;;;;;5076202;28;20183;-72
2023/07/31 03:45:14;;;;;;;4.30;2.40;;;22.10;98.00;;;;;;5076159;28;20175;-72
2023/07/31 03:47:39;;;;;;;3.70;2.27;;;22.10;98.00;;;;;;5076160;28;20731;-72
2023/07/31 03:50:06;;;;;;;3.80;2.37;;;22.10;97.90;;;;;;5076018;28;20175;-72
2023/07/31 03:52:31;;;;;;;3.00;2.30;;;22.00;98.00;;;;;;5075587;28;20310;-72
2023/07/31 03:54:57;;;;;;;3.63;2.53;;;22.10;98.10;;;;;;5075743;28;20274;-72
2023/07/31 03:57:22;;;;;;;4.80;2.70;;;22.00;98.00;;;;;;5075742;28;20185;-72
2023/07/31 03:59:48;;;;;;;3.67;2.53;;;22.00;98.10;;;;;;5075512;28;20166;-72
2023/07/31 04:02:20;;;;;;;4.43;2.60;;;22.00;98.20;;;;;;5075658;28;20222;-72
2023/07/31 04:04:46;;;;;;;6.13;2.63;;;22.00;98.60;;;;;;5076616;28;20188;-72
2023/07/31 04:07:11;;;;;;;3.80;2.30;;;21.90;98.30;;;;;;5075165;28;20194;-72
2023/07/31 04:09:37;;;;;;;4.20;2.50;;;22.00;98.30;;;;;;5075812;28;20230;-72
2023/07/31 04:12:03;;;;;;;4.07;2.70;;;21.90;98.70;;;;;;5075528;28;20175;-72
2023/07/31 04:14:29;;;;;;;3.70;2.60;;;22.00;98.50;;;;;;5076277;28;20177;-72
2023/07/31 04:16:54;;;;;;;3.57;2.40;;;22.00;98.40;;;;;;5075495;28;20266;-72
2023/07/31 04:19:20;;;;;;;4.10;2.40;;;22.00;98.60;;;;;;5074549;28;20553;-72
2023/07/31 04:21:51;;;;;;;3.00;2.20;;;22.00;98.50;;;;;;5076090;28;20160;-72
2023/07/31 04:24:23;;;;;;;4.57;2.73;;;22.00;98.60;;;;;;5078272;28;20173;-72
2023/07/31 04:26:52;;;;;;;3.63;2.60;;;22.00;98.50;;;;;;5079091;28;20176;-72
2023/07/31 04:29:19;;;;;;;4.53;2.97;;;22.00;98.30;;;;;;5079297;28;20171;-72
2023/07/31 04:31:44;;;;;;;4.73;2.70;;;21.90;98.60;;;;;;5079512;28;20534;-72
2023/07/31 04:34:11;;;;;;;3.97;2.60;;;21.80;98.80;;;;;;5079004;28;20204;-72
2023/07/31 04:36:39;;;;;;;4.00;2.57;;;21.90;99.20;;;;;;5078446;28;20174;-72
2023/07/31 04:39:05;;;;;;;4.30;2.87;;;21.90;98.70;;;;;;5079108;28;20208;-72
2023/07/31 04:41:30;;;;;;;3.87;2.63;;;22.00;98.80;;;;;;5079775;28;20209;-72
2023/07/31 04:43:56;;;;;;;3.37;2.80;;;21.90;99.10;;;;;;5080924;28;20157;-72
2023/07/31 04:46:26;;;;;;;4.53;2.73;;;21.90;99.00;;;;;;5079340;28;20186;-72
2023/07/31 04:48:51;;;;;;;4.27;2.40;;;21.90;98.80;;;;;;5079315;28;20179;-72
2023/07/31 04:51:17;;;;;;;4.57;2.60;;;21.90;98.90;;;;;;5076818;28;20172;-72
2023/07/31 04:53:42;;;;;;;4.07;2.87;;;21.90;98.80;;;;;;5075262;28;20655;-72
2023/07/31 04:56:10;;;;;;;3.33;2.27;;;21.90;98.90;;;;;;5066240;28;20207;-72
2023/07/31 04:58:36;;;;;;;4.30;2.60;;;21.90;98.80;;;;;;5074722;28;20171;-72
2023/07/31 05:01:01;;;;;;;4.93;2.87;;;21.90;98.70;;;;;;5076832;28;20564;-72
2023/07/31 05:03:28;;;;;;;4.30;2.70;;;22.00;98.80;;;;;;5077285;28;20202;-73
2023/07/31 05:05:54;;;;;;;4.30;2.83;;;22.00;98.90;;;;;;5075756;28;20515;-72
2023/07/31 05:08:19;;;;;;;5.73;2.20;;;21.90;99.20;;;;;;5076159;28;20278;-72
2023/07/31 05:10:45;;;;;;;4.63;2.63;;;21.90;98.90;;;;;;5077249;28;20604;-72
2023/07/31 05:13:16;;;;;;;3.87;2.60;;;21.90;98.80;;;;;;5075957;28;20791;-72
2023/07/31 05:15:42;;;;;;;5.10;2.50;;;22.00;98.80;;;;;;5078713;28;20555;-73
2023/07/31 05:18:07;;;;;;;5.40;2.83;;;22.00;99.40;;;;;;5078024;28;20272;-72
2023/07/31 05:20:33;;;;;;;4.23;2.53;;;21.90;99.80;;;;;;5077559;28;20178;-72
2023/07/31 05:23:10;;;;;;;5.00;2.93;;;21.90;99.10;;;;;;5077663;28;20190;-73
2023/07/31 05:25:36;;;;;;;3.77;2.57;;;21.90;99.10;;;;;;5094373;28;20182;-72
2023/07/31 05:28:01;;;;;;;3.60;2.23;;;21.90;98.90;;;;;;5077150;28;20175;-72
2023/07/31 05:30:29;;;;;;;3.13;2.50;;;21.90;99.00;;;;;;5077104;28;20274;-72
2023/07/31 05:32:56;;;;;;;3.77;2.40;;;22.00;99.20;;;;;;5077173;28;20179;-72
2023/07/31 05:35:21;;;;;;;3.13;2.30;;;21.90;99.30;;;;;;5092450;28;20179;-72
2023/07/31 05:37:47;;;;;;;4.33;2.30;;;21.90;98.90;;;;;;5076092;28;20445;-73
2023/07/31 05:40:12;;;;;;;3.93;2.70;;;21.90;98.80;;;;;;5076091;28;20183;-72
2023/07/31 05:42:38;;;;;;;4.13;2.50;;;21.90;99.20;;;;;;5076422;28;20306;-72
2023/07/31 05:45:05;;;;;;;5.47;2.33;;;21.90;99.00;;;;;;5076402;28;20584;-73
2023/07/31 05:47:31;;;;;;;4.23;2.67;;;21.90;99.00;;;;;;5075798;28;20168;-73
2023/07/31 05:49:58;;;;;;;3.87;2.40;;;21.90;99.00;;;;;;5075486;28;20179;-73
2023/07/31 05:52:23;;;;;;;4.70;2.80;;;21.90;99.00;;;;;;5075730;28;20584;-73
2023/07/31 05:54:50;;;;;;;6.50;2.80;;;21.90;99.40;;;;;;5075597;28;20329;-73
2023/07/31 05:57:15;;;;;;;4.23;2.83;;;21.90;99.50;;;;;;5076700;28;20164;-73
2023/07/31 05:59:42;;;;;;;3.67;2.67;;;21.90;99.60;;;;;;5075102;28;20178;-73
2023/07/31 06:02:07;;;;;;;4.67;3.00;;;21.90;99.30;;;;;;5075600;28;20168;-73
2023/07/31 06:04:33;;;;;;;5.87;2.57;;;22.00;99.20;;;;;;5070995;28;20218;-73
2023/07/31 06:06:59;;;;;;;4.50;2.70;;;21.90;99.20;;;;;;5059497;28;20172;-73
2023/07/31 06:09:25;;;;;;;3.13;2.70;;;21.90;99.40;;;;;;5055799;28;20267;-73
2023/07/31 06:11:51;;;;;;;6.07;2.93;;;22.00;99.30;;;;;;5064227;28;20278;-73
2023/07/31 06:14:17;;;;;;;4.73;2.80;;;21.90;99.20;;;;;;5073750;28;20175;-73
2023/07/31 06:16:44;;;;;;;4.57;3.00;;;22.00;99.80;;;;;;5075164;28;20170;-74
2023/07/31 06:19:10;;;;;;;4.43;2.70;;;22.00;99.90;;;;;;5074701;28;20185;-72
2023/07/31 06:21:37;;;;;;;4.80;3.30;;;21.90;99.60;;;;;;5075274;28;20179;-73
2023/07/31 06:24:04;;;;;;;3.53;2.70;;;21.90;99.60;;;;;;5074549;28;20214;-72
2023/07/31 06:26:29;;;;;;;6.27;3.37;;;22.00;99.60;;;;;;5073238;28;20174;-73
2023/07/31 06:28:55;;;;;;;5.10;3.10;;;22.00;99.60;;;;;;5072585;28;20171;-73
2023/07/31 06:31:22;;;;;;;5.03;3.13;;;22.00;99.90;;;;;;5073712;28;20215;-73
2023/07/31 06:33:49;;;;;;;3.50;2.90;;;22.00;99.90;;;;;;5071997;28;20168;-73
2023/07/31 06:36:15;;;;;;;5.27;3.07;;;22.00;99.80;;;;;;5072664;28;20579;-73
2023/07/31 06:38:42;;;;;;;4.50;3.17;;;22.00;99.90;;;;;;5072133;28;20174;-73
2023/07/31 06:41:07;;;;;;;4.97;2.90;;;22.00;99.80;;;;;;5073098;28;20171;-73
2023/07/31 06:43:33;;;;;;;3.70;2.73;;;22.00;99.80;;;;;;5073204;28;20206;-72
2023/07/31 06:46:05;;;;;;;4.17;2.90;;;22.00;99.70;;;;;;5057929;28;20187;-73
2023/07/31 06:48:34;;;;;;;4.87;3.00;;;22.10;99.80;;;;;;5066597;28;20240;-73
2023/07/31 06:51:01;;;;;;;4.63;2.70;;;22.10;99.70;;;;;;5068631;28;20215;-72
2023/07/31 06:53:26;;;;;;;3.67;2.70;;;22.10;99.90;;;;;;5057648;28;20211;-72
2023/07/31 06:55:52;;;;;;;3.87;3.00;;;22.10;99.80;;;;;;5072707;28;20280;-72
2023/07/31 06:58:19;;;;;;;4.20;2.80;;;22.00;99.90;;;;;;5071846;28;20164;-73
2023/07/31 07:00:44;;;;;;;4.03;3.00;;;22.00;99.90;;;;;;5071927;28;20175;-73
2023/07/31 07:03:10;;;;;;;4.40;3.07;;;22.00;99.90;;;;;;5070637;28;20207;-72
2023/07/31 07:05:36;;;;;;;6.47;3.00;;;22.00;99.90;;;;;;5072661;28;20172;-72
2023/07/31 07:08:02;;;;;;;4.30;2.90;;;22.00;99.90;;;;;;5070769;28;20170;-72
2023/07/31 07:10:27;;;;;;;8.43;2.83;;;22.00;99.90;;;;;;5071199;28;20155;-73
2023/07/31 07:12:55;;;;;;;4.57;2.97;;;22.00;99.90;;;;;;5070686;28;20186;-72
2023/07/31 07:15:21;;;;;;;4.20;2.83;;;22.00;99.90;;;;;;5072297;28;20734;-72
2023/07/31 07:17:47;;;;;;;5.27;2.70;;;22.00;99.90;;;;;;5069487;28;20178;-73
2023/07/31 07:20:13;;;;;;;3.23;2.50;;;22.00;99.90;;;;;;5063137;28;20180;-72
2023/07/31 07:22:38;;;;;;;4.03;2.97;;;22.00;99.90;;;;;;5063845;28;20464;-73
2023/07/31 07:25:05;;;;;;;4.63;2.80;;;21.90;99.90;;;;;;5064039;28;20537;-72
2023/07/31 07:27:31;;;;;;;4.37;2.70;;;22.00;99.90;;;;;;5065177;28;20159;-72
2023/07/31 07:29:56;;;;;;;3.67;2.40;;;21.90;99.90;;;;;;5065054;28;20224;-72
2023/07/31 07:32:24;;;;;;;4.90;2.80;;;22.00;99.90;;;;;;5063818;28;20639;-73
2023/07/31 07:34:50;;;;;;;4.53;2.60;;;22.00;99.90;;;;;;5062161;28;20217;-72
2023/07/31 07:37:16;;;;;;;4.53;2.87;;;22.00;99.90;;;;;;5064177;28;20293;-72
2023/07/31 07:39:42;;;;;;;4.47;2.97;;;22.00;99.90;;;;;;5062578;28;20378;-72
2023/07/31 07:42:08;;;;;;;2.83;2.57;;;22.00;99.90;;;;;;5062766;28;20277;-73
2023/07/31 07:44:34;;;;;;;3.93;2.73;;;22.00;99.90;;;;;;5063000;28;20206;-72
2023/07/31 07:47:00;;;;;;;3.97;2.93;;;22.00;99.90;;;;;;5062429;28;20467;-72
2023/07/31 07:49:26;;;;;;;4.87;2.83;;;22.00;99.90;;;;;;5062514;28;20461;-72
2023/07/31 07:51:51;;;;;;;4.17;2.90;;;22.00;99.90;;;;;;5065182;28;20199;-73
2023/07/31 07:54:17;;;;;;;3.87;2.73;;;22.00;99.90;;;;;;5065267;28;20273;-72
2023/07/31 07:56:43;;;;;;;4.87;2.90;;;22.00;99.90;;;;;;5064718;28;20333;-72
2023/07/31 07:59:08;;;;;;;3.37;2.53;;;22.00;99.90;;;;;;5048179;28;20171;-72
2023/07/31 08:01:34;;;;;;;4.07;3.03;;;22.10;99.90;;;;;;5063077;28;20320;-73
2023/07/31 08:04:00;;;;;;;3.80;2.60;;;22.10;99.90;;;;;;5063084;28;20225;-72
2023/07/31 08:06:25;;;;;;;3.27;2.30;;;22.10;99.90;;;;;;5063266;28;20215;-72
2023/07/31 08:08:51;;;;;;;3.00;2.60;;;22.10;99.90;;;;;;5063427;28;20167;-72
2023/07/31 08:11:17;;;;;;;4.10;2.70;;;22.10;99.90;;;;;;5062955;28;20330;-73
2023/07/31 08:13:42;;;;;;;4.73;3.03;;;22.10;99.90;;;;;;5063501;28;20163;-73
2023/07/31 08:16:08;;;;;;;4.30;2.90;;;22.10;99.90;;;;;;5060172;28;20414;-73
2023/07/31 08:18:34;;;;;;;4.47;2.80;;;22.10;99.90;;;;;;5062305;28;20225;-72
2023/07/31 08:21:02;;;;;;;4.50;3.03;;;22.10;99.90;;;;;;5060725;28;20582;-72
2023/07/31 08:23:28;;;;;;;3.53;2.50;;;22.10;99.90;;;;;;5060430;28;20268;-73
2023/07/31 08:25:53;;;;;;;4.90;2.70;;;22.10;99.90;;;;;;5059729;28;20183;-72
2023/07/31 08:28:19;;;;;;;3.50;2.40;;;22.10;99.90;;;;;;5060732;28;20181;-73
2023/07/31 08:30:45;;;;;;;3.80;2.80;;;22.10;99.90;;;;;;5063247;28;20356;-73
2023/07/31 08:33:11;;;;;;;4.40;2.50;;;22.10;99.90;;;;;;5062519;28;20179;-73
2023/07/31 08:35:37;;;;;;;4.20;2.90;;;22.10;99.90;;;;;;5065698;28;20219;-72
2023/07/31 08:38:02;;;;;;;3.03;2.20;;;22.20;99.90;;;;;;5062774;28;20229;-72
2023/07/31 08:40:29;;;;;;;4.73;3.07;;;22.20;99.90;;;;;;5063493;28;20698;-72
2023/07/31 08:43:02;;;;;;;3.23;2.47;;;22.20;99.90;;;;;;5065568;28;20211;-71
2023/07/31 08:45:28;;;;;;;2.90;2.50;;;22.20;99.90;;;;;;5065332;28;20259;-72
2023/07/31 08:47:54;;;;;;;3.17;2.30;;;22.20;99.90;;;;;;5064169;28;20535;-72
2023/07/31 08:50:21;;;;;;;3.73;2.80;;;22.20;99.90;;;;;;5063840;28;20172;-72
2023/07/31 08:52:48;;;;;;;4.30;2.63;;;22.20;99.90;;;;;;5065300;28;20180;-72
2023/07/31 08:55:14;;;;;;;3.50;2.13;;;22.10;99.90;;;;;;5066426;28;20776;-72
2023/07/31 08:57:41;;;;;;;3.90;2.33;;;22.20;99.90;;;;;;5068050;28;20266;-72
2023/07/31 09:00:10;;;;;;;3.27;2.50;;;22.10;99.90;;;;;;5064922;28;20175;-73
2023/07/31 09:02:54;;;;;;;3.00;2.30;;;22.10;99.90;;;;;;5061973;28;20215;-72
2023/07/31 09:05:20;;;;;;;3.07;2.13;;;22.10;99.90;;;;;;5063569;28;20187;-72
2023/07/31 09:07:48;;;;;;;3.30;2.37;;;22.10;99.90;;;;;;5062191;28;20260;-72
2023/07/31 09:10:13;;;;;;;2.57;2.23;;;22.20;99.90;;;;;;5065839;28;20279;-72
2023/07/31 09:12:39;;;;;;;3.53;2.40;;;22.20;99.90;;;;;;5066310;28;20465;-72
2023/07/31 09:15:05;;;;;;;4.80;2.17;;;22.20;99.90;;;;;;5065807;28;20226;-72
2023/07/31 09:17:33;;;;;;;3.13;2.07;;;22.30;99.90;;;;;;5067096;28;20179;-72
2023/07/31 09:20:15;;;;;;;2.73;1.90;;;22.20;99.90;;;;;;5065817;28;20202;-72
2023/07/31 09:22:42;;;;;;;3.00;2.00;;;22.30;99.90;;;;;;5066593;28;20754;-73
2023/07/31 09:25:15;;;;;;;4.70;2.10;;;22.20;99.90;;;;;;5068773;28;20229;-72
2023/07/31 09:27:57;;;;;;;3.07;1.90;;;22.20;99.90;;;;;;5066232;28;20321;-72
2023/07/31 09:30:23;;;;;;;3.07;1.90;;;22.20;99.90;;;;;;5070070;28;20261;-72
2023/07/31 09:32:51;;;;;;;3.33;1.93;;;22.30;99.90;;;;;;5069638;28;20176;-72
2023/07/31 09:35:28;;;;;;;2.30;1.90;;;22.30;99.90;;;;;;5068811;28;20210;-72
2023/07/31 09:37:58;;;;;;;2.57;1.80;;;22.30;99.90;;;;;;5068531;28;20179;-72
2023/07/31 09:40:35;;;;;;;2.80;1.90;;;22.30;99.90;;;;;;5068261;28;20275;-72
2023/07/31 09:43:06;;;;;;;2.40;1.93;;;22.30;99.90;;;;;;5069017;28;20603;-72
2023/07/31 09:45:37;;;;;;;2.07;1.87;;;22.30;99.90;;;;;;5067742;28;20175;-72
2023/07/31 09:48:04;;;;;;;3.80;1.83;;;22.30;99.90;;;;;;5069814;28;20561;-72
2023/07/31 09:50:30;;;;;;;2.83;1.80;;;22.30;99.90;;;;;;5067737;28;20219;-72
2023/07/31 09:52:56;;;;;;;2.00;1.80;;;22.30;99.90;;;;;;5068175;28;20270;-72
2023/07/31 09:55:21;;;;;;;2.67;1.90;;;22.30;99.90;;;;;;5067276;28;20234;-72
2023/07/31 09:57:49;;;;;;;1.93;1.67;;;22.30;99.90;;;;;;5062744;28;20288;-72
2023/07/31 10:00:17;;;;;;;2.23;1.60;;;22.30;99.90;;;;;;5064614;28;20187;-72
2023/07/31 10:02:46;;;;;;;2.47;1.70;;;22.30;99.90;;;;;;5062803;28;20208;-72
2023/07/31 10:05:15;;;;;;;2.07;1.87;;;22.30;99.90;;;;;;5046023;28;20405;-71
2023/07/31 10:07:51;;;;;;;2.30;1.70;;;22.30;99.90;;;;;;5045546;28;20168;-72
2023/07/31 10:10:20;;;;;;;2.37;1.80;;;22.30;99.90;;;;;;5060488;28;20274;-72
2023/07/31 10:12:47;;;;;;;1.80;1.70;;;22.30;99.90;;;;;;5060080;28;20437;-72
2023/07/31 10:15:15;;;;;;;2.30;1.70;;;22.30;99.90;;;;;;5062862;28;20229;-72
2023/07/31 10:17:41;;;;;;;2.87;1.70;;;22.30;99.90;;;;;;5047377;28;20278;-72
2023/07/31 10:20:07;;;;;;;2.27;1.80;;;22.30;99.90;;;;;;5045726;28;20265;-72
2023/07/31 10:22:34;;;;;;;1.93;1.53;;;22.30;99.90;;;;;;5047257;28;20204;-72
2023/07/31 10:25:00;;;;;;;1.60;1.50;;;22.40;99.90;;;;;;5063323;28;20319;-72
2023/07/31 10:27:27;;;;;;;1.63;1.40;;;22.40;99.90;;;;;;5065636;28;20318;-72
2023/07/31 10:29:56;;;;;;;1.77;1.60;;;22.40;99.90;;;;;;5063996;28;20315;-72
2023/07/31 10:32:22;;;;;;;2.07;1.40;;;22.40;99.90;;;;;;5047827;28;20192;-71
2023/07/31 10:34:51;;;;;;;1.60;1.40;;;22.40;99.90;;;;;;5061890;28;20179;-72
2023/07/31 10:37:22;;;;;;;1.53;1.27;;;22.40;99.90;;;;;;5071380;28;20171;-72
2023/07/31 10:40:02;;;;;;;1.97;1.40;;;22.40;99.90;;;;;;5071722;28;20175;-72
2023/07/31 10:42:48;;;;;;;1.70;1.37;;;22.40;99.90;;;;;;5070087;28;20182;-73
2023/07/31 10:45:25;;;;;;;1.30;1.20;;;22.40;99.90;;;;;;5070146;28;20225;-72
2023/07/31 10:48:00;;;;;;;1.90;1.40;;;22.40;99.90;;;;;;5069643;28;20168;-72
2023/07/31 10:50:26;;;;;;;1.40;1.30;;;22.40;99.90;;;;;;5069066;28;20178;-72
2023/07/31 10:52:56;;;;;;;1.47;1.30;;;22.40;99.90;;;;;;5070178;28;20198;-72
2023/07/31 10:55:26;;;;;;;1.90;1.30;;;22.40;99.90;;;;;;5069274;28;20172;-72
2023/07/31 10:57:54;;;;;;;1.50;1.37;;;22.40;99.90;;;;;;5070121;28;20207;-72
2023/07/31 11:00:25;;;;;;;1.43;1.33;;;22.30;99.90;;;;;;5064729;28;20313;-71
2023/07/31 11:03:04;;;;;;;1.23;1.13;;;22.30;99.90;;;;;;5063105;28;20203;-72
2023/07/31 11:05:47;;;;;;;1.90;1.40;;;22.40;99.90;;;;;;5061493;28;20190;-72
2023/07/31 11:08:25;;;;;;;1.47;1.27;;;22.40;99.90;;;;;;5062191;28;20164;-72
2023/07/31 11:11:03;;;;;;;1.63;1.40;;;22.40;99.90;;;;;;5044124;28;20269;-72
2023/07/31 11:13:29;;;;;;;1.60;1.40;;;22.40;99.90;;;;;;5046099;28;20169;-72
2023/07/31 11:15:55;;;;;;;1.60;1.27;;;22.40;99.90;;;;;;5044664;28;20165;-72
2023/07/31 11:18:21;;;;;;;1.33;1.10;;;22.40;99.90;;;;;;5042415;28;20192;-72
2023/07/31 11:20:47;;;;;;;1.40;1.20;;;22.40;99.90;;;;;;5043319;28;20176;-72
2023/07/31 11:23:15;;;;;;;1.73;1.43;;;22.40;99.90;;;;;;5044077;28;20204;-71
2023/07/31 11:25:41;;;;;;;1.43;1.23;;;22.40;99.90;;;;;;5043082;28;20187;-71
2023/07/31 11:28:09;;;;;;;1.40;1.30;;;22.40;99.90;;;;;;5044679;28;20426;-72
2023/07/31 11:30:35;;;;;;;1.50;1.40;;;22.40;99.90;;;;;;5041878;28;20164;-72
2023/07/31 11:33:03;;;;;;;1.60;1.40;;;22.40;99.90;;;;;;5043695;28;20183;-72
2023/07/31 11:35:34;;;;;;;1.70;1.60;;;22.50;99.90;;;;;;5042583;28;20520;-72
2023/07/31 11:38:01;;;;;;;2.03;1.40;;;22.50;99.90;;;;;;5041389;28;20231;-71
2023/07/31 11:40:30;;;;;;;1.50;1.30;;;22.50;99.90;;;;;;5042291;28;20374;-72
2023/07/31 11:43:03;;;;;;;2.03;1.40;;;22.40;99.90;;;;;;5044850;28;20200;-73
2023/07/31 11:45:30;;;;;;;1.83;1.50;;;22.40;99.90;;;;;;5045131;28;20267;-72
2023/07/31 11:47:56;;;;;;;1.73;1.40;;;22.40;99.90;;;;;;5044831;28;20176;-72
2023/07/31 11:50:25;;;;;;;3.90;2.10;;;22.50;99.90;;;;;;5045144;28;20227;-72
2023/07/31 11:52:55;;;;;;;2.53;1.77;;;22.40;99.90;;;;;;5046154;28;20529;-72
2023/07/31 11:55:21;;;;;;;2.40;1.90;;;22.40;99.90;;;;;;5044455;28;20333;-72
2023/07/31 11:57:48;;;;;;;2.13;1.73;;;22.40;99.90;;;;;;5043059;28;20273;-72
2023/07/31 12:00:15;;;;;;;1.63;1.53;;;22.50;99.90;;;;;;5043892;28;20454;-72
2023/07/31 12:02:41;;;;;;;2.90;1.90;;;22.50;99.90;;;;;;5042946;28;20306;-72
2023/07/31 12:05:13;;;;;;;3.03;1.90;;;22.50;99.90;;;;;;5043182;28;20195;-72
2023/07/31 12:07:47;;;;;;;3.27;1.80;;;22.50;99.90;;;;;;5041815;28;20539;-72
2023/07/31 12:10:42;;;;;;;2.97;1.73;;;22.50;99.90;;;;;;5041192;28;20168;-72
2023/07/31 12:13:10;;;;;;;2.70;1.80;;;22.50;99.90;;;;;;5037019;28;20191;-72
2023/07/31 12:15:45;;;;;;;1.77;1.67;;;22.60;99.90;;;;;;5068504;28;20275;-73
2023/07/31 12:18:12;;;;;;;1.87;1.70;;;22.60;99.90;;;;;;5050525;28;20171;-72
2023/07/31 12:20:42;;;;;;;2.30;1.90;;;22.60;99.90;;;;;;5048221;28;20237;-72
2023/07/31 12:23:15;;;;;;;1.90;1.57;;;22.60;99.90;;;;;;5042984;28;20196;-72
2023/07/31 12:25:41;;;;;;;2.97;1.90;;;22.60;99.90;;;;;;5040904;28;20165;-72
2023/07/31 12:28:11;;;;;;;3.07;1.90;;;22.60;99.90;;;;;;5042975;28;20229;-72
2023/07/31 12:30:38;;;;;;;3.40;1.83;;;22.60;99.90;;;;;;5044295;28;20195;-72
2023/07/31 12:33:08;;;;;;;2.03;1.70;;;22.60;99.90;;;;;;5078985;28;20256;-72
2023/07/31 12:35:38;;;;;;;1.90;1.70;;;22.60;99.90;;;;;;5068600;28;20262;-73
2023/07/31 12:38:04;;;;;;;2.37;1.87;;;22.60;99.90;;;;;;5069553;28;20474;-72
2023/07/31 12:40:30;;;;;;;1.60;1.50;;;22.50;99.90;;;;;;5068967;28;20183;-73
2023/07/31 12:42:55;;;;;;;2.63;1.57;;;22.50;99.90;;;;;;5062395;28;20280;-72
2023/07/31 12:45:23;;;;;;;2.80;1.87;;;22.50;99.90;;;;;;5067516;28;20511;-72
2023/07/31 12:47:48;;;;;;;1.80;1.50;;;22.50;99.90;;;;;;5068266;28;20207;-72
2023/07/31 12:50:14;;;;;;;3.70;1.60;;;22.50;99.90;;;;;;5067280;28;20214;-72